Time;durP1;ratioP1;P1;durP2;ratioP2;P2;SDS_P1;SDS_P2;PMS_P1;PMS_P2;Temp;Humidity;BMP_temperature;BMP_pressure;BME280_temperature;BME280_humidity;BME280_pressure;Samples;Min_cycle;Max_cycle;Signal;HPM_P1;HPM_P2
2021/03/14 00:01:04;;;;;;;12.85;10.05;;;;;;;5.34;70.69;100063.05;1668406;84;21169;-40
2021/03/14 00:03:33;;;;;;;13.90;8.45;;;;;;;5.31;70.67;100061.39;1654896;85;21208;-41
2021/03/14 00:06:01;;;;;;;12.75;8.80;;;;;;;5.28;70.76;100060.21;1650854;84;21213;-41
2021/03/14 00:08:30;;;;;;;10.65;8.60;;;;;;;5.28;70.81;100059.36;1667257;84;21621;-41
2021/03/14 00:11:01;;;;;;;10.18;8.60;;;;;;;5.27;70.80;100060.30;1659217;84;21193;-40
2021/03/14 00:13:30;;;;;;;;;;;;;;;5.27;70.80;100061.15;1669423;84;21186;-41
2021/03/14 00:15:57;;;;;;;11.20;8.83;;;;;;;5.25;70.82;100059.50;1667265;84;20181;-44
2021/03/14 00:18:32;;;;;;;12.53;10.48;;;;;;;5.20;70.85;100055.25;1673707;84;21141;-43
2021/03/14 00:21:00;;;;;;;13.60;10.72;;;;;;;5.21;70.89;100054.78;1669314;84;21157;-43
2021/03/14 00:23:27;;;;;;;11.43;9.18;;;;;;;5.20;70.87;100056.58;1665371;84;21149;-41
2021/03/14 00:25:56;;;;;;;10.68;8.43;;;;;;;5.19;70.92;100056.19;1660463;84;21201;-42
2021/03/14 00:28:24;;;;;;;12.05;8.50;;;;;;;5.18;70.97;100053.60;1653933;84;21178;-40
2021/03/14 00:30:52;;;;;;;10.65;8.83;;;;;;;5.19;70.94;100052.66;1667965;84;21601;-40
2021/03/14 00:33:20;;;;;;;11.55;8.40;;;;;;;5.18;70.93;100047.84;1650379;85;21590;-40
2021/03/14 00:35:47;;;;;;;10.00;8.78;;;;;;;5.18;70.98;100045.67;1650520;84;21190;-40
2021/03/14 00:38:15;;;;;;;9.40;8.18;;;;;;;5.17;70.94;100042.64;1650519;84;21182;-40
2021/03/14 00:40:44;;;;;;;11.28;8.58;;;;;;;5.18;70.95;100041.70;1651786;84;21177;-39
2021/03/14 00:43:13;;;;;;;12.73;9.60;;;;;;;5.16;70.92;100040.44;1653270;86;21165;-41
2021/03/14 00:45:41;;;;;;;12.53;8.93;;;;;;;5.16;70.98;100036.94;1649977;86;21602;-42
2021/03/14 00:48:10;;;;;;;11.73;8.95;;;;;;;5.13;71.00;100044.54;1644239;84;21162;-42
2021/03/14 00:50:40;;;;;;;11.70;8.98;;;;;;;5.12;71.00;100041.52;1654223;84;21177;-43
2021/03/14 00:53:10;;;;;;;13.05;9.13;;;;;;;5.08;71.06;100043.03;1621866;86;21195;-41
2021/03/14 00:55:39;;;;;;;10.10;8.25;;;;;;;5.06;71.19;100050.16;1685289;82;21534;-41
2021/03/14 00:58:07;;;;;;;10.45;8.78;;;;;;;5.05;71.17;100047.13;1703168;82;21585;-42
2021/03/14 01:00:35;;;;;;;12.30;8.65;;;;;;;5.04;71.29;100048.03;1702651;82;21146;-40
2021/03/14 01:03:03;;;;;;;11.70;8.28;;;;;;;5.01;71.32;100041.56;1704650;82;21153;-41
2021/03/14 01:05:33;;;;;;;10.70;8.70;;;;;;;4.95;71.54;100038.26;1694990;82;21146;-40
2021/03/14 01:08:00;;;;;;;11.22;9.50;;;;;;;4.95;71.54;100038.26;1700668;82;21829;-42
2021/03/14 01:10:30;;;;;;;13.30;9.08;;;;;;;4.94;71.56;100032.59;1699389;82;21161;-43
2021/03/14 01:12:57;;;;;;;12.88;9.10;;;;;;;4.92;71.65;100034.43;1696087;82;21543;-42
2021/03/14 01:15:25;;;;;;;12.60;10.40;;;;;;;4.91;71.70;100032.73;1697079;82;21169;-42
2021/03/14 01:17:54;;;;;;;12.30;9.33;;;;;;;4.91;71.72;100037.13;1702956;82;21583;-41
2021/03/14 01:20:22;;;;;;;11.88;9.80;;;;;;;4.91;71.74;100033.16;1693692;82;21153;-41
2021/03/14 01:22:51;;;;;;;11.97;9.68;;;;;;;4.91;71.80;100021.27;1695700;82;21126;-42
2021/03/14 01:25:20;;;;;;;12.10;8.78;;;;;;;4.92;71.80;100018.58;1698573;82;21189;-43
2021/03/14 01:27:49;;;;;;;12.05;9.28;;;;;;;4.91;71.87;100016.87;1703535;82;21308;-46
2021/03/14 01:30:18;;;;;;;11.43;8.95;;;;;;;4.91;71.89;100017.30;1703525;82;21573;-45
2021/03/14 01:32:46;;;;;;;11.08;8.70;;;;;;;4.89;71.89;100018.72;1713770;82;21578;-44
2021/03/14 01:35:14;;;;;;;13.08;9.13;;;;;;;4.89;71.94;100024.44;1702160;82;21148;-44
2021/03/14 01:37:43;;;;;;;12.07;9.35;;;;;;;4.88;71.94;100026.22;1702460;83;21133;-44
2021/03/14 01:40:17;;;;;;;13.03;10.38;;;;;;;4.88;71.91;100025.38;1709154;82;21150;-40
2021/03/14 01:42:45;;;;;;;12.70;10.20;;;;;;;4.85;71.95;100025.51;1708269;82;21149;-41
2021/03/14 01:45:16;;;;;;;13.38;10.38;;;;;;;4.82;72.01;100018.57;1699500;82;21665;-40
2021/03/14 01:47:46;;;;;;;12.03;9.83;;;;;;;4.82;72.10;100015.08;1709605;82;21145;-42
2021/03/14 01:50:23;;;;;;;11.53;9.48;;;;;;;4.82;72.21;100022.53;1703013;82;21141;-40
2021/03/14 01:52:52;;;;;;;12.80;9.83;;;;;;;4.81;72.25;100019.94;1707172;82;21173;-40
2021/03/14 01:55:21;;;;;;;11.65;8.85;;;;;;;4.81;72.23;100019.47;1702927;82;21145;-41
2021/03/14 01:57:49;;;;;;;15.72;10.25;;;;;;;4.81;72.28;100018.16;1700211;82;21142;-43
2021/03/14 02:00:24;;;;;;;11.93;10.65;;;;;;;4.83;72.29;100024.70;1701376;82;21145;-41
2021/03/14 02:02:52;;;;;;;12.80;9.90;;;;;;;4.84;72.26;100020.69;1703904;82;21760;-43
2021/03/14 02:05:20;;;;;;;10.63;9.30;;;;;;;4.88;72.25;100021.41;1709616;82;21177;-41
2021/03/14 02:07:51;;;;;;;14.38;11.00;;;;;;;4.90;72.14;100034.95;1698953;82;21204;-43
2021/03/14 02:10:22;;;;;;;12.33;10.25;;;;;;;4.89;72.09;100032.36;1703158;83;21149;-41
2021/03/14 02:12:57;;;;;;;11.88;9.73;;;;;;;4.86;72.12;100032.03;1703598;82;21165;-40
2021/03/14 02:15:26;;;;;;;13.65;11.15;;;;;;;4.85;72.15;100029.47;1702016;83;21559;-42
2021/03/14 02:17:55;;;;;;;13.22;9.88;;;;;;;4.81;72.22;100034.47;1710252;82;21145;-41
2021/03/14 02:20:28;;;;;;;14.75;11.08;;;;;;;4.78;72.32;100039.42;1691223;83;21154;-40
2021/03/14 02:23:13;;;;;;;12.00;10.63;;;;;;;4.78;72.43;100039.42;1704005;82;21149;-40
2021/03/14 02:25:59;;;;;;;13.55;11.85;;;;;;;4.76;72.39;100044.79;1695715;83;21137;-42
2021/03/14 02:28:27;;;;;;;17.92;13.48;;;;;;;4.74;72.49;100036.53;1615195;87;21229;-41
2021/03/14 02:30:54;;;;;;;15.58;12.85;;;;;;;4.70;72.57;100035.78;1611157;87;21630;-43
2021/03/14 02:33:23;;;;;;;17.25;12.95;;;;;;;4.68;72.70;100038.94;1607431;87;21193;-40
2021/03/14 02:35:52;;;;;;;16.93;14.68;;;;;;;4.68;72.80;100043.38;1572395;89;21615;-42
2021/03/14 02:38:20;;;;;;;15.68;13.55;;;;;;;4.69;72.90;100037.19;1606058;87;21323;-42
2021/03/14 02:40:47;;;;;;;17.95;15.10;;;;;;;4.70;72.92;100037.57;1611131;87;21198;-40
2021/03/14 02:43:15;;;;;;;18.30;15.38;;;;;;;4.70;72.97;100045.49;1611686;87;21169;-42
2021/03/14 02:45:42;;;;;;;20.90;16.42;;;;;;;4.66;73.07;100039.48;1610991;87;21209;-40
2021/03/14 02:48:11;;;;;;;21.68;16.77;;;;;;;4.66;73.22;100042.56;1572899;89;21332;-41
2021/03/14 02:50:39;;;;;;;22.45;17.05;;;;;;;4.66;73.37;100048.73;1608693;87;21177;-40
2021/03/14 02:53:06;;;;;;;20.05;15.13;;;;;;;4.66;73.43;100049.17;1612959;87;21193;-41
2021/03/14 02:55:34;;;;;;;18.67;15.20;;;;;;;4.65;73.48;100052.75;1592464;89;21191;-43
2021/03/14 02:58:02;;;;;;;20.82;17.07;;;;;;;4.65;73.51;100057.56;1608344;87;21170;-42
2021/03/14 03:00:31;;;;;;;18.30;15.55;;;;;;;4.64;73.59;100064.25;1609647;87;21201;-43
2021/03/14 03:02:58;;;;;;;17.95;13.85;;;;;;;4.64;73.66;100070.85;1608229;87;21192;-40
2021/03/14 03:05:26;;;;;;;20.37;15.53;;;;;;;4.65;73.74;100069.45;1624845;85;21608;-41
2021/03/14 03:07:56;;;;;;;22.27;16.10;;;;;;;4.66;73.86;100051.38;1669771;85;21172;-41
2021/03/14 03:10:28;;;;;;;18.25;14.55;;;;;;;4.69;73.86;100051.71;1679635;84;21176;-41
2021/03/14 03:12:59;;;;;;;19.48;15.20;;;;;;;4.72;73.82;100058.19;1681513;84;21164;-41
2021/03/14 03:15:27;;;;;;;18.75;14.68;;;;;;;4.75;73.75;100053.62;1650697;85;21644;-42
2021/03/14 03:17:55;;;;;;;17.10;14.30;;;;;;;4.74;73.71;100053.70;1643150;85;21175;-41
2021/03/14 03:20:25;;;;;;;18.30;14.35;;;;;;;4.73;73.70;100048.85;1647472;85;21215;-41
2021/03/14 03:22:53;;;;;;;17.48;13.70;;;;;;;4.70;73.74;100045.49;1679339;84;21132;-40
2021/03/14 03:25:21;;;;;;;15.00;12.78;;;;;;;4.70;73.76;100044.17;1678854;84;21183;-41
2021/03/14 03:27:48;;;;;;;14.43;12.43;;;;;;;4.69;73.77;100053.89;1683054;84;21279;-40
2021/03/14 03:30:18;;;;;;;16.42;13.53;;;;;;;4.69;73.74;100052.56;1697909;82;21149;-41
2021/03/14 03:32:46;;;;;;;16.35;12.23;;;;;;;4.70;73.71;100046.34;1707898;82;21173;-42
2021/03/14 03:35:16;;;;;;;19.87;15.80;;;;;;;4.72;73.68;100052.90;1707991;82;21589;-43
2021/03/14 03:37:45;;;;;;;17.85;14.18;;;;;;;4.71;73.68;100053.37;1701929;82;21825;-43
2021/03/14 03:40:15;;;;;;;18.23;13.05;;;;;;;4.71;73.72;100050.72;1711750;83;21110;-40
2021/03/14 03:43:03;;;;;;;19.82;14.53;;;;;;;4.71;73.67;100054.69;1703918;82;21149;-40
2021/03/14 03:45:35;;;;;;;15.13;12.73;;;;;;;4.71;73.63;100054.69;1705262;82;21157;-44
2021/03/14 03:48:05;;;;;;;17.77;13.35;;;;;;;4.70;73.66;100050.78;1706958;82;21976;-46
2021/03/14 03:50:35;;;;;;;20.05;13.88;;;;;;;4.68;73.72;100039.41;1703267;82;21134;-40
2021/03/14 03:53:02;;;;;;;16.70;13.75;;;;;;;4.67;73.71;100049.59;1707154;83;21161;-40
2021/03/14 03:55:30;;;;;;;16.87;12.40;;;;;;;4.64;73.82;100043.97;1700514;82;21153;-41
2021/03/14 03:57:57;;;;;;;16.45;13.22;;;;;;;4.61;73.86;100039.25;1704848;82;21153;-43
2021/03/14 04:00:25;;;;;;;16.35;11.40;;;;;;;4.58;73.94;100041.56;1701804;82;21797;-41
2021/03/14 04:02:53;;;;;;;16.73;13.22;;;;;;;4.59;73.96;100047.27;1688864;83;21149;-41
2021/03/14 04:05:20;;;;;;;15.38;12.78;;;;;;;4.60;73.98;100045.47;1702849;82;21161;-40
2021/03/14 04:07:49;;;;;;;16.35;12.65;;;;;;;4.62;73.95;100038.35;1708997;82;21173;-42
2021/03/14 04:10:21;;;;;;;15.15;11.85;;;;;;;4.62;73.93;100033.07;1703895;82;21546;-41
2021/03/14 04:12:50;;;;;;;14.20;11.22;;;;;;;4.63;73.85;100030.34;1709541;82;21153;-42
2021/03/14 04:15:23;;;;;;;13.85;10.88;;;;;;;4.63;73.79;100028.17;1684714;83;21471;-39
2021/03/14 04:17:52;;;;;;;14.95;11.85;;;;;;;4.62;73.77;100025.14;1713574;82;21299;-41
2021/03/14 04:20:22;;;;;;;13.95;11.30;;;;;;;4.61;73.70;100018.12;1689319;83;21609;-39
2021/03/14 04:22:57;;;;;;;15.60;11.25;;;;;;;4.59;73.71;100026.13;1712600;82;21170;-42
2021/03/14 04:25:25;;;;;;;13.98;10.35;;;;;;;4.60;73.69;100034.91;1703485;82;21566;-41
2021/03/14 04:27:53;;;;;;;14.47;11.08;;;;;;;4.59;73.67;100031.41;1705148;82;21145;-43
2021/03/14 04:30:22;;;;;;;13.83;11.25;;;;;;;4.60;73.68;100030.95;1705536;82;21149;-44
2021/03/14 04:32:50;;;;;;;15.65;12.25;;;;;;;4.59;73.70;100018.20;1707236;82;21516;-41
2021/03/14 04:35:18;;;;;;;12.58;10.28;;;;;;;4.62;73.67;100019.86;1708829;82;21169;-41
2021/03/14 04:37:45;;;;;;;13.05;10.05;;;;;;;4.64;73.53;100019.34;1693067;83;21635;-39
2021/03/14 04:40:13;;;;;;;13.72;10.85;;;;;;;4.63;73.52;100013.17;1666712;84;21422;-40
2021/03/14 04:42:45;;;;;;;11.85;9.43;;;;;;;4.64;73.47;100014.06;1713622;82;21189;-41
2021/03/14 04:45:12;;;;;;;11.73;9.68;;;;;;;4.63;73.43;100013.64;1704616;82;21154;-44
2021/03/14 04:47:44;;;;;;;19.23;14.30;;;;;;;4.61;73.44;100007.56;1708843;82;21177;-45
2021/03/14 04:50:17;;;;;;;14.25;10.93;;;;;;;4.59;73.46;100006.80;1704825;82;21182;-45
2021/03/14 04:52:44;;;;;;;12.37;9.93;;;;;;;4.55;73.53;100006.04;1703709;82;21210;-40
2021/03/14 04:55:13;;;;;;;11.68;8.93;;;;;;;4.53;73.59;100002.13;1708149;82;21150;-40
2021/03/14 04:57:41;;;;;;;12.05;9.43;;;;;;;4.54;73.67;100013.11;1698646;82;21181;-41
2021/03/14 05:00:13;;;;;;;10.60;8.83;;;;;;;4.54;73.70;100003.87;1706410;82;21538;-40
2021/03/14 05:02:43;;;;;;;12.53;9.95;;;;;;;4.55;73.77;99996.80;1701011;82;21589;-43
2021/03/14 05:05:12;;;;;;;13.15;10.32;;;;;;;4.55;73.82;99992.84;1701462;83;21145;-41
2021/03/14 05:07:45;;;;;;;11.78;9.75;;;;;;;4.51;73.85;99990.80;1704660;82;21173;-42
2021/03/14 05:10:17;;;;;;;11.43;8.98;;;;;;;4.47;73.92;99989.19;1708259;83;21114;-41
2021/03/14 05:12:45;;;;;;;11.25;9.03;;;;;;;4.44;74.01;99995.08;1701330;83;21117;-39
2021/03/14 05:15:15;;;;;;;11.10;8.48;;;;;;;4.43;74.14;99992.87;1706385;82;21149;-41
2021/03/14 05:17:44;;;;;;;11.83;8.93;;;;;;;4.43;74.19;99992.87;1705788;82;22002;-40
2021/03/14 05:20:18;;;;;;;9.88;8.68;;;;;;;4.45;74.22;100000.73;1703802;82;21145;-40
2021/03/14 05:22:47;;;;;;;11.40;8.63;;;;;;;4.48;74.29;100009.84;1700501;82;21141;-44
2021/03/14 05:25:16;;;;;;;11.50;9.35;;;;;;;4.52;74.22;100014.09;1704624;82;21161;-42
2021/03/14 05:27:49;;;;;;;9.05;7.67;;;;;;;4.54;74.16;100007.83;1710127;82;21188;-41
2021/03/14 05:30:25;;;;;;;11.00;8.90;;;;;;;4.56;74.14;100007.74;1697224;82;21162;-41
2021/03/14 05:32:55;;;;;;;9.95;7.95;;;;;;;4.59;74.15;100010.75;1704712;82;21166;-43
2021/03/14 05:35:27;;;;;;;11.75;8.33;;;;;;;4.59;74.15;100011.61;1699276;83;21157;-43
2021/03/14 05:37:56;;;;;;;11.22;8.53;;;;;;;4.61;74.11;100012.84;1702935;82;21661;-41
2021/03/14 05:40:24;;;;;;;10.32;7.80;;;;;;;4.62;74.15;100006.66;1703275;82;21150;-42
2021/03/14 05:42:53;;;;;;;10.05;8.18;;;;;;;4.63;74.11;100010.53;1701633;82;21177;-42
2021/03/14 05:45:21;;;;;;;9.03;7.60;;;;;;;4.64;74.09;100014.06;1709619;82;21209;-40
2021/03/14 05:47:49;;;;;;;11.03;8.63;;;;;;;4.67;74.04;100015.25;1700343;82;21157;-42
2021/03/14 05:50:22;;;;;;;9.85;8.08;;;;;;;4.70;73.92;100021.25;1708872;82;21162;-44
2021/03/14 05:52:50;;;;;;;10.08;7.95;;;;;;;4.71;73.87;100025.62;1713925;82;21187;-47
2021/03/14 05:55:24;;;;;;;10.00;6.90;;;;;;;4.73;73.80;100024.23;1704037;82;21141;-43
2021/03/14 05:57:54;;;;;;;9.63;6.97;;;;;;;4.75;73.74;100027.20;1701911;83;21505;-43
2021/03/14 06:00:30;;;;;;;10.00;8.03;;;;;;;4.79;73.65;100030.59;1706105;82;21134;-44
2021/03/14 06:03:00;;;;;;;10.10;7.83;;;;;;;4.81;73.53;100024.76;1702192;82;21125;-43
2021/03/14 06:05:30;;;;;;;9.18;7.15;;;;;;;4.82;73.43;100023.86;1704761;82;21106;-43
2021/03/14 06:07:58;;;;;;;8.20;6.28;;;;;;;4.84;73.33;100024.66;1705489;83;21165;-42
2021/03/14 06:10:28;;;;;;;9.25;6.87;;;;;;;4.86;73.23;100030.70;1705214;82;21268;-41
2021/03/14 06:12:55;;;;;;;10.50;7.35;;;;;;;4.88;73.18;100034.15;1702283;83;21153;-44
2021/03/14 06:15:23;;;;;;;7.97;6.85;;;;;;;4.91;73.08;100044.62;1706119;82;21145;-41
2021/03/14 06:17:51;;;;;;;9.18;7.40;;;;;;;4.91;73.03;100039.33;1705671;83;21130;-44
2021/03/14 06:20:35;;;;;;;8.53;6.45;;;;;;;4.93;72.95;100039.25;1705521;82;21164;-44
2021/03/14 06:23:16;;;;;;;8.40;6.90;;;;;;;4.97;72.92;100034.24;1801488;78;22982;-44
2021/03/14 06:25:49;;;;;;;7.78;6.87;;;;;;;4.94;72.88;100030.41;1779081;78;21130;-45
2021/03/14 06:28:17;;;;;;;;;;;;;;;4.95;72.85;100034.30;1783138;78;21557;-44
2021/03/14 06:30:45;;;;;;;7.83;6.50;;;;;;;4.98;72.87;100039.91;1725633;80;20635;-47
2021/03/14 06:33:18;;;;;;;8.60;6.70;;;;;;;4.98;72.80;100039.45;1774821;79;21129;-48
2021/03/14 06:35:52;;;;;;;7.95;6.10;;;;;;;4.98;72.85;100046.05;1779346;78;21686;-47
2021/03/14 06:38:31;;;;;;;10.10;6.00;;;;;;;4.99;72.82;100046.47;1778483;79;21125;-44
2021/03/14 06:41:13;;;;;;;7.12;6.00;;;;;;;5.00;72.72;100040.71;1779368;78;21225;-43
2021/03/14 06:43:49;;;;;;;7.28;5.97;;;;;;;5.01;72.78;100034.95;1776026;79;21164;-44
2021/03/14 06:46:23;;;;;;;8.58;6.78;;;;;;;5.03;72.81;100033.97;1776380;79;21137;-43
2021/03/14 06:49:15;;;;;;;8.10;5.55;;;;;;;5.07;72.81;100039.53;1772135;79;21130;-43
2021/03/14 06:51:45;;;;;;;6.50;5.33;;;;;;;5.12;72.75;100031.41;1773473;79;21143;-45
2021/03/14 06:54:37;;;;;;;6.62;5.35;;;;;;;5.13;72.67;100031.33;1757599;80;21613;-43
2021/03/14 06:57:20;;;;;;;8.58;6.87;;;;;;;5.13;72.59;100039.25;1766523;80;21137;-43
2021/03/14 06:59:54;;;;;;;7.03;5.92;;;;;;;5.14;72.59;100026.89;1753810;80;21141;-43
2021/03/14 07:02:31;;;;;;;7.72;6.12;;;;;;;5.17;72.59;100029.42;1756402;80;21157;-45
2021/03/14 07:05:02;;;;;;;6.42;5.15;;;;;;;5.18;72.50;100031.13;1760844;80;21150;-43
2021/03/14 07:07:33;;;;;;;8.13;6.05;;;;;;;5.17;72.52;100035.56;1759277;80;21137;-44
2021/03/14 07:10:13;;;;;;;8.08;4.92;;;;;;;5.19;72.51;100036.80;1756535;80;21109;-46
2021/03/14 07:12:45;;;;;;;7.85;6.17;;;;;;;5.26;72.46;100038.73;1758695;80;21169;-44
2021/03/14 07:15:24;;;;;;;9.05;6.78;;;;;;;5.31;72.38;100030.13;1759517;80;21114;-44
2021/03/14 07:17:54;;;;;;;6.30;5.17;;;;;;;5.34;72.34;100027.34;1756240;80;21114;-46
2021/03/14 07:20:28;;;;;;;6.95;5.37;;;;;;;5.41;72.32;100027.48;1761691;80;21181;-47
2021/03/14 07:23:10;;;;;;;7.17;5.33;;;;;;;5.43;72.21;100019.87;1746698;80;21178;-41
2021/03/14 07:25:43;;;;;;;5.40;4.80;;;;;;;5.49;71.98;100024.49;1735925;81;21549;-44
2021/03/14 07:28:12;;;;;;;5.03;4.50;;;;;;;5.53;71.83;100030.91;1739551;81;21556;-41
2021/03/14 07:30:39;;;;;;;6.50;5.28;;;;;;;5.55;71.65;100034.81;1737707;81;21146;-40
2021/03/14 07:33:07;;;;;;;6.50;5.00;;;;;;;5.54;71.63;100036.58;1742841;81;21145;-46
2021/03/14 07:35:35;;;;;;;6.20;4.90;;;;;;;5.57;71.63;100038.25;1732893;81;21297;-45
2021/03/14 07:38:03;;;;;;;7.05;5.62;;;;;;;5.61;71.60;100042.46;1738112;81;21638;-47
2021/03/14 07:40:30;;;;;;;5.80;5.10;;;;;;;5.64;71.35;100040.55;1734131;81;21987;-44
2021/03/14 07:43:02;;;;;;;6.87;5.47;;;;;;;5.63;71.32;100051.19;1729212;81;21140;-46
2021/03/14 07:45:31;;;;;;;6.05;4.70;;;;;;;5.63;71.25;100045.43;1723914;81;21153;-46
2021/03/14 07:48:02;;;;;;;7.45;5.58;;;;;;;5.64;71.25;100043.20;1726705;81;21128;-44
2021/03/14 07:50:41;;;;;;;7.67;6.05;;;;;;;5.67;71.22;100047.94;1726181;81;21138;-42
2021/03/14 07:53:12;;;;;;;6.05;5.00;;;;;;;5.68;71.22;100045.23;1727161;81;21165;-42
2021/03/14 07:55:40;;;;;;;6.33;5.25;;;;;;;5.70;71.17;100047.35;1733862;81;21539;-42
2021/03/14 07:58:12;;;;;;;7.60;5.62;;;;;;;5.71;71.07;100049.05;1725103;81;21140;-40
2021/03/14 08:00:42;;;;;;;9.50;6.05;;;;;;;5.73;71.06;100055.14;1700538;81;21183;-39
2021/03/14 08:03:10;;;;;;;6.58;5.20;;;;;;;5.75;71.07;100055.09;1726280;81;21175;-42
2021/03/14 08:05:53;;;;;;;6.87;5.40;;;;;;;5.75;71.01;100046.67;1734918;81;21161;-43
2021/03/14 08:08:30;;;;;;;5.85;4.83;;;;;;;5.76;71.00;100044.41;1729638;81;21112;-45
2021/03/14 08:10:57;;;;;;;6.20;5.20;;;;;;;5.79;71.01;100038.97;1735062;81;21631;-44
2021/03/14 08:13:34;;;;;;;6.15;4.90;;;;;;;5.85;70.91;100027.27;1729188;81;21574;-43
2021/03/14 08:16:09;;;;;;;8.30;5.97;;;;;;;5.90;70.82;100029.23;1741063;81;21120;-46
2021/03/14 08:18:41;;;;;;;6.65;5.20;;;;;;;5.96;70.73;100026.80;1734604;81;21148;-47
2021/03/14 08:21:33;;;;;;;6.22;5.30;;;;;;;6.04;70.59;100030.80;1728661;81;21556;-47
2021/03/14 08:24:03;;;;;;;7.22;5.47;;;;;;;6.11;70.43;100029.20;1734449;81;21155;-46
2021/03/14 08:26:34;;;;;;;7.70;5.12;;;;;;;6.17;70.45;100027.09;1736452;81;21195;-43
2021/03/14 08:29:09;;;;;;;7.35;5.97;;;;;;;6.23;70.23;100025.97;1704701;82;21179;-44
2021/03/14 08:31:51;;;;;;;7.22;5.97;;;;;;;6.29;70.06;100030.96;1737895;81;21132;-44
2021/03/14 08:34:33;;;;;;;8.68;6.17;;;;;;;6.31;70.08;100038.38;1726056;81;21293;-46
2021/03/14 08:37:02;;;;;;;5.80;4.60;;;;;;;6.34;69.90;100036.05;1736534;81;21147;-45
2021/03/14 08:40:04;;;;;;;6.08;5.20;;;;;;;6.42;69.50;100039.17;1803479;77;22914;-46
2021/03/14 08:42:55;;;;;;;7.47;6.67;;;;;;;6.38;69.27;100034.98;1770903;79;21192;-46
2021/03/14 08:45:48;;;;;;;8.80;7.60;;;;;;;6.40;69.28;100037.95;1780812;78;28613;-45
2021/03/14 08:48:17;;;;;;;6.83;6.10;;;;;;;6.34;69.22;100043.52;1768676;79;21145;-45
2021/03/14 08:50:47;;;;;;;6.60;5.62;;;;;;;6.39;69.11;100039.33;1782514;80;21553;-45
2021/03/14 08:53:20;;;;;;;7.00;5.85;;;;;;;6.37;69.01;100040.72;1738293;80;21518;-46
2021/03/14 08:56:09;;;;;;;6.25;5.20;;;;;;;6.38;69.18;100040.27;1769569;79;22945;-45
2021/03/14 08:58:39;;;;;;;6.60;5.22;;;;;;;6.34;69.24;100044.84;1725085;82;21550;-43
2021/03/14 09:01:10;;;;;;;7.97;5.45;;;;;;;6.36;69.15;100048.75;1731376;82;21165;-45
2021/03/14 09:03:49;;;;;;;11.25;8.68;;;;;;;6.33;69.17;100045.78;1734992;80;21137;-42
2021/03/14 09:06:28;;;;;;;7.28;5.65;;;;;;;6.35;69.21;100048.34;1734658;82;21971;-45
2021/03/14 09:09:02;;;;;;;8.70;7.00;;;;;;;6.37;69.22;100051.78;1730519;82;21134;-46
2021/03/14 09:11:40;;;;;;;7.47;6.62;;;;;;;6.40;69.15;100050.30;1734454;80;21142;-42
2021/03/14 09:14:28;;;;;;;7.87;6.62;;;;;;;6.41;68.89;100048.92;1705591;82;21137;-42
2021/03/14 09:17:10;;;;;;;7.67;6.35;;;;;;;6.43;68.84;100048.86;1735543;80;21140;-43
2021/03/14 09:19:56;;;;;;;8.73;6.92;;;;;;;6.47;68.56;100038.48;1715234;82;21170;-43
2021/03/14 09:22:28;;;;;;;9.05;6.80;;;;;;;6.49;68.41;100030.00;1741801;82;21134;-43
2021/03/14 09:25:28;;;;;;;10.43;6.67;;;;;;;6.58;68.45;100028.72;1807700;77;23017;-44
2021/03/14 09:27:59;;;;;;;10.15;7.50;;;;;;;6.60;68.32;100022.84;1790284;78;21152;-44
2021/03/14 09:30:29;;;;;;;7.85;6.72;;;;;;;6.64;68.29;100021.30;1798663;78;21263;-43
2021/03/14 09:33:02;;;;;;;8.88;7.60;;;;;;;6.70;68.19;100014.39;1770585;78;21157;-42
2021/03/14 09:35:37;;;;;;;9.25;8.33;;;;;;;6.78;68.14;100015.77;1806894;78;21267;-42
2021/03/14 09:38:12;;;;;;;10.15;8.35;;;;;;;6.86;67.79;100013.62;1804633;78;21145;-41
2021/03/14 09:40:47;;;;;;;10.13;7.78;;;;;;;6.92;67.47;100005.34;1806488;78;21782;-42
2021/03/14 09:43:23;;;;;;;9.60;7.90;;;;;;;6.96;67.22;100010.89;1779847;78;21145;-42
2021/03/14 09:46:10;;;;;;;11.10;9.28;;;;;;;7.00;66.80;100008.45;1791773;78;21164;-43
2021/03/14 09:48:40;;;;;;;10.35;8.00;;;;;;;7.04;66.59;100011.83;1747372;80;21159;-43
2021/03/14 09:51:09;;;;;;;9.78;7.67;;;;;;;7.04;66.47;100015.33;1749942;80;21168;-51
2021/03/14 09:53:41;;;;;;;11.20;9.08;;;;;;;7.06;66.47;100018.77;1772070;80;21208;-44
2021/03/14 09:56:14;;;;;;;9.75;8.10;;;;;;;7.10;66.35;100026.08;1738074;81;21730;-43
2021/03/14 09:59:13;;;;;;;10.63;7.75;;;;;;;7.15;66.29;100022.72;1798541;78;22673;-43
2021/03/14 10:01:49;;;;;;;13.95;10.78;;;;;;;7.13;66.47;100021.50;1692374;82;21679;-42
2021/03/14 10:04:18;;;;;;;11.00;8.43;;;;;;;7.21;66.49;100021.57;1671021;83;21206;-44
2021/03/14 10:06:49;;;;;;;11.53;8.68;;;;;;;7.26;66.16;100014.23;1714226;82;21478;-45
2021/03/14 10:09:26;;;;;;;11.83;8.45;;;;;;;7.29;65.82;100011.41;1715475;82;21187;-43
2021/03/14 10:11:58;;;;;;;10.08;8.18;;;;;;;7.31;65.89;100014.38;1719132;82;21181;-43
2021/03/14 10:14:26;;;;;;;10.68;8.20;;;;;;;7.33;65.87;100003.66;1703635;82;21546;-44
2021/03/14 10:16:54;;;;;;;11.95;8.98;;;;;;;7.36;65.75;100012.34;1721577;82;21134;-43
2021/03/14 10:19:22;;;;;;;10.50;8.13;;;;;;;7.37;65.76;100015.84;1723069;81;21133;-42
2021/03/14 10:21:50;;;;;;;11.33;9.35;;;;;;;7.39;65.64;99994.08;1734867;81;21185;-44
2021/03/14 10:24:27;;;;;;;11.00;8.90;;;;;;;7.40;65.52;100001.56;1735933;81;21159;-42
2021/03/14 10:27:01;;;;;;;10.43;8.55;;;;;;;7.39;65.42;99992.75;1724218;81;21587;-43
2021/03/14 10:29:40;;;;;;;11.85;9.28;;;;;;;7.38;65.23;99980.41;1734068;81;21549;-44
2021/03/14 10:32:27;;;;;;;11.33;8.20;;;;;;;7.35;65.14;99985.41;1738771;81;21133;-43
2021/03/14 10:35:03;;;;;;;10.85;8.45;;;;;;;7.34;64.94;99989.48;1711202;83;21161;-43
2021/03/14 10:37:35;;;;;;;9.95;7.55;;;;;;;7.26;65.24;99980.60;1691735;81;21204;-43
2021/03/14 10:40:08;;;;;;;11.85;8.70;;;;;;;7.26;65.24;99980.60;1735647;81;21157;-43
2021/03/14 10:42:44;;;;;;;11.12;9.45;;;;;;;7.25;65.30;99987.30;1685594;81;21964;-42
2021/03/14 10:45:16;;;;;;;12.95;8.58;;;;;;;7.23;65.38;99994.03;1736578;81;21152;-43
2021/03/14 10:47:47;;;;;;;10.68;8.18;;;;;;;7.23;65.55;99982.55;1723724;81;21192;-44
2021/03/14 10:50:20;;;;;;;11.57;9.18;;;;;;;7.22;65.64;99972.41;1741819;81;21178;-43
2021/03/14 10:53:15;;;;;;;10.60;9.08;;;;;;;7.23;65.75;99968.84;1734164;81;21162;-43
2021/03/14 10:55:47;;;;;;;12.37;9.40;;;;;;;7.25;65.80;99956.33;1686012;83;21621;-44
2021/03/14 10:58:18;;;;;;;10.20;8.33;;;;;;;7.28;65.87;99957.95;1682947;83;21152;-44
2021/03/14 11:00:53;;;;;;;10.68;9.03;;;;;;;7.28;65.57;99957.52;1704092;81;21137;-44
2021/03/14 11:03:32;;;;;;;12.93;9.20;;;;;;;7.24;65.60;99961.73;1688437;83;21175;-45
2021/03/14 11:06:24;;;;;;;11.75;8.50;;;;;;;7.23;65.71;99962.66;1690846;83;21157;-43
2021/03/14 11:09:10;;;;;;;10.95;8.13;;;;;;;7.22;65.70;99968.91;1697786;82;21163;-42
2021/03/14 11:11:48;;;;;;;11.53;9.40;;;;;;;7.22;65.75;99965.78;1713003;81;21188;-42
2021/03/14 11:14:36;;;;;;;12.98;9.95;;;;;;;7.22;65.89;99958.30;1708636;82;21157;-42
2021/03/14 11:17:23;;;;;;;11.33;8.85;;;;;;;7.26;65.97;99954.56;1713135;81;21625;-41
2021/03/14 11:19:56;;;;;;;15.70;11.25;;;;;;;7.29;65.89;99952.59;1714823;82;21197;-41
2021/03/14 11:22:26;;;;;;;11.85;9.45;;;;;;;7.29;65.77;99948.61;1690595;83;21153;-41
2021/03/14 11:24:54;;;;;;;13.03;10.50;;;;;;;7.27;65.81;99935.04;1689775;84;21320;-41
2021/03/14 11:27:24;;;;;;;15.95;10.50;;;;;;;7.23;65.92;99935.69;1685073;83;21181;-43
2021/03/14 11:29:52;;;;;;;12.47;9.40;;;;;;;7.19;66.16;99934.59;1673702;83;21197;-42
2021/03/14 11:32:22;;;;;;;14.70;11.35;;;;;;;7.17;66.33;99932.49;1690687;83;21137;-43
2021/03/14 11:35:02;;;;;;;17.92;11.95;;;;;;;7.16;66.43;99927.66;1804302;76;22909;-39
2021/03/14 11:37:31;;;;;;;13.85;10.48;;;;;;;7.08;66.64;99924.09;1750263;80;21133;-42
2021/03/14 11:40:09;;;;;;;16.42;14.38;;;;;;;7.12;66.86;99912.37;1806817;76;39224;-43
2021/03/14 11:42:38;;;;;;;14.70;11.70;;;;;;;7.11;66.93;99913.31;1804310;77;21655;-43
2021/03/14 11:45:16;;;;;;;16.87;13.00;;;;;;;7.20;67.00;99911.11;1783753;77;22973;-44
2021/03/14 11:47:44;;;;;;;13.72;11.18;;;;;;;7.13;66.97;99909.24;1757571;78;21146;-44
2021/03/14 11:50:25;;;;;;;17.02;11.80;;;;;;;7.14;67.17;99911.82;1808164;77;23048;-43